Time;durP1;ratioP1;P1;durP2;ratioP2;P2;SDS_P1;SDS_P2;PMS_P1;PMS_P2;Temp;Humidity;BMP_temperature;BMP_pressure;BME280_temperature;BME280_humidity;BME280_pressure;Samples;Min_cycle;Max_cycle;Signal;HPM_P1;HPM_P2
2021/03/22 00:01:26;;;;;;;6.60;1.60;;;16.90;49.90;;;;;;5075064;28;20062;-67
2021/03/22 00:03:53;;;;;;;7.28;2.03;;;16.90;49.90;;;;;;5074290;28;20056;-66
2021/03/22 00:06:19;;;;;;;5.97;1.60;;;16.90;49.90;;;;;;5075386;28;20062;-67
2021/03/22 00:08:44;;;;;;;6.05;2.00;;;16.90;49.90;;;;;;5075023;28;20410;-65
2021/03/22 00:11:10;;;;;;;7.00;1.90;;;16.90;50.00;;;;;;5075251;28;20025;-66
2021/03/22 00:13:36;;;;;;;5.70;1.70;;;16.80;49.90;;;;;;5075035;28;20058;-66
2021/03/22 00:16:05;;;;;;;6.13;1.73;;;16.80;49.90;;;;;;5074960;28;20039;-65
2021/03/22 00:18:34;;;;;;;6.97;2.00;;;16.80;50.00;;;;;;5073439;28;20100;-65
2021/03/22 00:21:01;;;;;;;5.75;1.58;;;16.80;50.00;;;;;;5075177;28;20082;-66
2021/03/22 00:23:27;;;;;;;7.97;1.70;;;16.80;50.00;;;;;;5074709;28;20029;-66
2021/03/22 00:25:53;;;;;;;6.68;2.20;;;16.80;50.00;;;;;;5075004;28;20036;-66
2021/03/22 00:28:21;;;;;;;5.82;1.67;;;16.80;50.00;;;;;;5075048;28;20020;-66
2021/03/22 00:30:48;;;;;;;5.63;1.80;;;16.80;50.10;;;;;;5074569;28;20101;-66
2021/03/22 00:33:16;;;;;;;5.68;1.42;;;16.80;50.10;;;;;;5073634;28;20029;-66
2021/03/22 00:35:42;;;;;;;5.70;1.60;;;16.70;50.00;;;;;;5074383;28;20466;-66
2021/03/22 00:38:08;;;;;;;6.32;1.98;;;16.70;50.10;;;;;;5073731;28;20078;-66
2021/03/22 00:40:38;;;;;;;8.05;1.75;;;16.70;50.00;;;;;;5074090;28;20029;-66
2021/03/22 00:43:03;;;;;;;5.90;1.58;;;16.70;50.10;;;;;;5074358;28;20029;-65
2021/03/22 00:45:29;;;;;;;5.10;1.30;;;16.70;50.10;;;;;;5075017;28;20349;-66
2021/03/22 00:47:54;;;;;;;4.90;1.52;;;16.70;50.10;;;;;;5074763;28;20035;-65
2021/03/22 00:50:24;;;;;;;6.28;1.70;;;16.70;50.20;;;;;;5074506;28;20016;-66
2021/03/22 00:52:50;;;;;;;5.85;1.60;;;16.70;50.20;;;;;;5074609;28;20056;-65
2021/03/22 00:55:15;;;;;;;5.88;1.83;;;16.60;50.20;;;;;;5074645;28;20434;-65
2021/03/22 00:57:41;;;;;;;4.78;1.60;;;16.70;50.20;;;;;;5074729;28;20487;-66
2021/03/22 01:00:09;;;;;;;6.47;1.70;;;16.60;50.20;;;;;;5074477;28;20060;-66
2021/03/22 01:02:35;;;;;;;5.28;1.52;;;16.60;50.20;;;;;;5072919;28;20044;-67
2021/03/22 01:05:00;;;;;;;10.05;1.80;;;16.60;50.20;;;;;;5074197;28;20040;-65
2021/03/22 01:07:26;;;;;;;5.97;1.60;;;16.60;50.20;;;;;;5073054;28;20114;-66
2021/03/22 01:09:52;;;;;;;6.18;2.00;;;16.60;50.20;;;;;;5073389;28;20115;-66
2021/03/22 01:12:18;;;;;;;5.10;1.60;;;16.60;50.30;;;;;;5074688;28;20489;-66
2021/03/22 01:14:44;;;;;;;5.00;1.70;;;16.60;50.20;;;;;;5074013;28;20063;-65
2021/03/22 01:17:10;;;;;;;7.28;1.50;;;16.60;50.30;;;;;;5073563;28;20040;-66
2021/03/22 01:19:36;;;;;;;5.50;1.55;;;16.50;50.20;;;;;;5074464;28;20060;-66
2021/03/22 01:22:03;;;;;;;5.90;1.60;;;16.60;50.30;;;;;;5072829;28;20037;-66
2021/03/22 01:24:32;;;;;;;6.53;1.40;;;16.50;50.80;;;;;;5071918;28;20024;-65
2021/03/22 01:27:01;;;;;;;4.55;1.52;;;16.50;50.30;;;;;;5071234;28;20019;-66
2021/03/22 01:29:39;;;;;;;6.65;1.50;;;16.50;50.30;;;;;;5073160;28;20472;-66
2021/03/22 01:32:10;;;;;;;5.57;1.30;;;16.50;50.30;;;;;;5073737;28;20526;-66
2021/03/22 01:34:37;;;;;;;4.40;1.30;;;16.50;50.30;;;;;;5074125;28;20059;-66
2021/03/22 01:37:03;;;;;;;5.32;1.70;;;16.50;50.40;;;;;;5073246;28;20032;-66
2021/03/22 01:39:33;;;;;;;4.70;1.55;;;16.50;50.30;;;;;;5073546;28;20024;-66
2021/03/22 01:42:05;;;;;;;6.50;1.40;;;16.40;50.30;;;;;;5072626;28;20516;-66
2021/03/22 01:44:32;;;;;;;5.00;1.58;;;16.50;50.30;;;;;;5073373;28;20031;-66
2021/03/22 01:47:06;;;;;;;5.15;1.60;;;16.50;50.30;;;;;;5071353;28;20048;-66
2021/03/22 01:49:40;;;;;;;7.40;1.60;;;16.40;50.20;;;;;;5073005;28;20435;-66
2021/03/22 01:52:09;;;;;;;5.38;1.67;;;16.40;50.30;;;;;;5073680;28;20027;-66
2021/03/22 01:54:35;;;;;;;5.53;1.77;;;16.40;50.40;;;;;;5073458;28;20028;-66
2021/03/22 01:57:41;;;;;;;4.97;1.60;;;16.40;50.40;;;;;;5071911;28;20032;-66
2021/03/22 02:00:15;;;;;;;4.38;1.45;;;16.40;50.50;;;;;;5051092;28;20482;-66
2021/03/22 02:02:43;;;;;;;5.50;1.40;;;16.40;50.50;;;;;;5034313;28;20067;-67
2021/03/22 02:05:13;;;;;;;6.40;1.52;;;16.40;50.40;;;;;;5063148;28;20071;-66
2021/03/22 02:07:39;;;;;;;4.90;1.48;;;16.40;50.50;;;;;;5073109;28;20463;-67
2021/03/22 02:10:07;;;;;;;5.72;1.50;;;16.40;50.50;;;;;;5073040;28;20539;-67
2021/03/22 02:12:32;;;;;;;6.53;1.45;;;16.40;50.40;;;;;;5073294;28;20448;-67
2021/03/22 02:14:58;;;;;;;4.32;1.10;;;16.40;50.50;;;;;;5073269;28;20024;-66
2021/03/22 02:17:29;;;;;;;5.20;1.63;;;16.30;50.50;;;;;;5072231;28;20024;-67
2021/03/22 02:20:36;;;;;;;4.82;1.20;;;16.30;50.50;;;;;;5072434;28;20021;-67
2021/03/22 02:23:43;;;;;;;6.65;1.60;;;16.30;50.60;;;;;;5072575;28;20036;-66
2021/03/22 02:26:37;;;;;;;3.67;1.20;;;16.30;50.60;;;;;;5041137;28;20051;-66
2021/03/22 02:29:37;;;;;;;4.78;1.48;;;16.30;50.50;;;;;;5072761;28;20029;-66
2021/03/22 02:32:26;;;;;;;4.53;1.50;;;16.30;50.60;;;;;;5072819;28;20032;-67
2021/03/22 02:35:09;;;;;;;5.22;1.40;;;16.30;50.60;;;;;;5072433;28;20415;-67
2021/03/22 02:37:49;;;;;;;5.10;1.40;;;16.20;50.60;;;;;;5070391;28;20475;-67
2021/03/22 02:40:38;;;;;;;5.90;1.50;;;16.20;50.60;;;;;;5071471;28;20021;-66
2021/03/22 02:43:05;;;;;;;5.35;1.38;;;16.20;50.60;;;;;;5072360;28;20032;-67
2021/03/22 02:45:40;;;;;;;4.65;1.60;;;16.20;50.60;;;;;;5072059;28;20107;-66
2021/03/22 02:48:08;;;;;;;5.20;1.55;;;16.20;50.60;;;;;;5072247;28;20095;-66
2021/03/22 02:50:39;;;;;;;4.25;1.23;;;16.20;50.60;;;;;;5073107;28;20074;-67
2021/03/22 02:53:15;;;;;;;;;;;16.20;50.70;;;;;;5072863;28;20020;-66
2021/03/22 02:55:57;;;;;;;5.47;1.42;;;16.20;50.60;;;;;;5072587;28;19912;-66
2021/03/22 02:58:35;;;;;;;5.85;1.38;;;16.20;50.60;;;;;;5072566;28;20024;-66
2021/03/22 03:01:04;;;;;;;4.20;1.35;;;16.20;50.60;;;;;;5074671;28;20028;-66
2021/03/22 03:03:31;;;;;;;5.30;1.63;;;16.20;50.70;;;;;;5075941;28;20036;-67
2021/03/22 03:05:57;;;;;;;6.35;1.98;;;16.10;50.60;;;;;;5091566;28;20029;-67
2021/03/22 03:08:29;;;;;;;5.47;1.70;;;16.10;50.70;;;;;;5076554;28;20074;-66
2021/03/22 03:10:56;;;;;;;5.53;1.30;;;16.10;50.70;;;;;;5076028;28;20028;-66
2021/03/22 03:13:22;;;;;;;6.43;1.70;;;16.10;50.80;;;;;;5076125;28;20079;-66
2021/03/22 03:15:47;;;;;;;6.32;1.60;;;16.10;50.80;;;;;;5076126;28;20033;-66
2021/03/22 03:18:12;;;;;;;4.90;1.10;;;16.10;50.90;;;;;;5076016;28;20090;-67
2021/03/22 03:20:38;;;;;;;4.93;1.23;;;16.00;50.80;;;;;;5076271;28;20024;-66
2021/03/22 03:23:04;;;;;;;6.03;1.55;;;16.00;50.90;;;;;;5070072;28;20060;-67
2021/03/22 03:25:30;;;;;;;6.07;1.45;;;16.00;50.90;;;;;;5070787;28;20036;-65
2021/03/22 03:27:56;;;;;;;4.93;1.30;;;16.00;50.90;;;;;;5074585;28;20383;-66
2021/03/22 03:30:26;;;;;;;7.00;1.58;;;16.00;50.90;;;;;;5075518;28;20024;-66
2021/03/22 03:32:53;;;;;;;5.60;1.63;;;16.00;50.90;;;;;;5073974;28;20383;-65
2021/03/22 03:35:20;;;;;;;5.43;1.50;;;16.00;50.90;;;;;;5075126;28;20020;-65
2021/03/22 03:37:46;;;;;;;3.83;1.48;;;16.00;50.90;;;;;;5075118;28;20086;-65
2021/03/22 03:40:23;;;;;;;4.85;1.50;;;16.00;51.00;;;;;;5075369;28;20036;-65
2021/03/22 03:42:48;;;;;;;5.22;1.40;;;16.00;51.00;;;;;;5075475;28;20314;-66
2021/03/22 03:45:16;;;;;;;5.25;1.40;;;16.00;51.00;;;;;;5075369;28;20035;-66
2021/03/22 03:47:43;;;;;;;5.80;1.40;;;16.00;51.00;;;;;;5074803;28;20024;-65
2021/03/22 03:50:13;;;;;;;4.65;1.30;;;16.00;51.00;;;;;;5075435;28;20494;-66
2021/03/22 03:52:39;;;;;;;4.55;1.42;;;16.00;51.00;;;;;;5075239;28;20025;-66
2021/03/22 03:55:06;;;;;;;4.90;1.45;;;16.00;51.00;;;;;;5074786;28;20042;-66
2021/03/22 03:57:32;;;;;;;5.38;1.67;;;16.00;51.00;;;;;;5075025;28;20024;-65
2021/03/22 03:59:58;;;;;;;5.45;1.33;;;16.00;51.00;;;;;;5075161;28;20020;-65
2021/03/22 04:02:24;;;;;;;4.60;1.50;;;16.00;51.00;;;;;;5074882;28;20056;-65
2021/03/22 04:04:49;;;;;;;4.47;1.40;;;16.00;51.00;;;;;;5073474;28;20051;-64
2021/03/22 04:07:15;;;;;;;5.82;1.65;;;16.00;51.00;;;;;;5073778;28;20307;-65
2021/03/22 04:09:41;;;;;;;5.22;1.60;;;15.90;51.00;;;;;;5075091;28;20066;-65
2021/03/22 04:12:08;;;;;;;4.22;1.30;;;15.90;51.10;;;;;;5074859;28;20064;-66
2021/03/22 04:14:34;;;;;;;5.45;1.48;;;15.90;51.60;;;;;;5073365;28;20020;-65
2021/03/22 04:17:00;;;;;;;6.03;1.40;;;15.90;51.20;;;;;;5074962;28;20094;-65
2021/03/22 04:19:26;;;;;;;4.78;1.20;;;15.90;51.20;;;;;;5074371;28;20041;-66
2021/03/22 04:21:52;;;;;;;4.65;1.27;;;15.80;51.20;;;;;;5073603;28;20021;-66
2021/03/22 04:24:19;;;;;;;5.18;1.42;;;15.90;51.20;;;;;;5074730;28;20204;-66
2021/03/22 04:26:44;;;;;;;4.60;1.60;;;15.80;51.20;;;;;;5074376;28;20028;-66
2021/03/22 04:29:11;;;;;;;5.07;1.40;;;15.80;51.20;;;;;;5072529;28;20059;-66
2021/03/22 04:31:37;;;;;;;4.45;1.42;;;15.80;51.20;;;;;;5074516;28;20181;-66
2021/03/22 04:34:04;;;;;;;5.47;1.50;;;15.80;51.20;;;;;;5074871;28;20101;-66
2021/03/22 04:36:34;;;;;;;4.93;1.35;;;15.80;51.20;;;;;;5073954;28;20793;-66
2021/03/22 04:39:00;;;;;;;4.93;1.40;;;15.80;51.30;;;;;;5073200;28;20025;-66
2021/03/22 04:41:26;;;;;;;3.75;1.25;;;15.80;51.30;;;;;;5073853;28;20025;-66
2021/03/22 04:43:52;;;;;;;5.13;1.40;;;15.80;51.30;;;;;;5074558;28;20387;-66
2021/03/22 04:46:19;;;;;;;4.70;1.33;;;15.80;51.30;;;;;;5074299;28;20106;-65
2021/03/22 04:48:44;;;;;;;5.32;1.50;;;15.80;51.30;;;;;;5073130;28;20024;-66
2021/03/22 04:51:10;;;;;;;4.82;1.50;;;15.80;51.30;;;;;;5074850;28;20105;-66
2021/03/22 04:53:36;;;;;;;5.68;1.50;;;15.70;51.30;;;;;;5074626;28;20028;-66
2021/03/22 04:56:07;;;;;;;5.40;1.67;;;15.70;51.30;;;;;;5074149;28;20036;-66
2021/03/22 04:58:33;;;;;;;5.83;1.70;;;15.80;51.40;;;;;;5074231;28;20510;-66
2021/03/22 05:00:59;;;;;;;4.35;1.50;;;15.70;51.40;;;;;;5072273;28;20039;-66
2021/03/22 05:03:25;;;;;;;5.18;1.40;;;15.70;51.40;;;;;;5074100;28;20033;-65
2021/03/22 05:05:51;;;;;;;6.25;1.50;;;15.80;51.40;;;;;;5072844;28;20031;-66
2021/03/22 05:08:20;;;;;;;4.45;1.20;;;15.70;51.20;;;;;;5074640;28;20117;-66
2021/03/22 05:10:49;;;;;;;5.22;1.55;;;15.80;51.40;;;;;;5074250;28;20463;-65
2021/03/22 05:13:16;;;;;;;5.63;1.73;;;15.80;51.40;;;;;;5072504;28;20029;-65
2021/03/22 05:15:43;;;;;;;4.65;1.60;;;15.80;51.40;;;;;;5073758;28;20621;-66
2021/03/22 05:18:10;;;;;;;6.10;1.95;;;15.80;51.40;;;;;;5073997;28;20107;-65
2021/03/22 05:20:44;;;;;;;4.95;1.67;;;15.80;51.50;;;;;;5072685;28;20125;-67
2021/03/22 05:23:13;;;;;;;6.28;2.10;;;15.70;51.40;;;;;;5073805;28;20478;-66
2021/03/22 05:25:39;;;;;;;5.72;1.67;;;15.70;51.60;;;;;;5073514;28;20023;-66
2021/03/22 05:28:07;;;;;;;5.43;1.70;;;15.70;51.70;;;;;;5073433;28;20024;-66
2021/03/22 05:30:34;;;;;;;5.38;1.65;;;15.70;51.60;;;;;;5073153;28;20013;-67
2021/03/22 05:33:02;;;;;;;8.13;1.75;;;15.70;51.60;;;;;;5073724;28;20078;-66
2021/03/22 05:35:29;;;;;;;5.97;1.60;;;15.70;51.70;;;;;;5073298;28;20025;-66
2021/03/22 05:37:56;;;;;;;6.57;1.70;;;15.70;52.20;;;;;;5073152;28;20382;-66
2021/03/22 05:40:27;;;;;;;8.02;2.00;;;15.70;51.70;;;;;;5072562;28;20048;-65
2021/03/22 05:43:08;;;;;;;6.53;1.90;;;15.60;51.70;;;;;;5074346;28;20020;-65
2021/03/22 05:45:53;;;;;;;13.10;1.88;;;15.70;51.70;;;;;;5067734;28;20025;-69
2021/03/22 05:48:37;;;;;;;13.77;2.30;;;15.80;52.00;;;;;;5067534;28;20025;-75
2021/03/22 05:51:28;;;;;;;13.30;2.17;;;16.00;53.00;;;;;;5071585;28;20420;-71
2021/03/22 05:54:18;;;;;;;14.73;3.30;;;16.00;52.70;;;;;;5073248;28;20013;-71
2021/03/22 05:56:44;;;;;;;16.13;2.53;;;16.10;52.80;;;;;;5071110;28;20028;-66
2021/03/22 05:59:47;;;;;;;13.25;2.67;;;16.00;52.40;;;;;;5072812;28;20031;-67
2021/03/22 06:02:40;;;;;;;11.18;2.40;;;15.90;52.30;;;;;;5051182;28;20048;-67
2021/03/22 06:05:36;;;;;;;9.02;2.03;;;15.90;52.40;;;;;;5051478;28;20254;-66
2021/03/22 06:08:43;;;;;;;10.15;1.95;;;15.90;52.60;;;;;;5069527;28;20027;-66
2021/03/22 06:11:34;;;;;;;9.32;2.40;;;15.80;52.40;;;;;;5064332;28;20036;-67
2021/03/22 06:14:25;;;;;;;13.32;2.50;;;15.80;52.40;;;;;;5071095;28;20111;-67
2021/03/22 06:17:01;;;;;;;8.68;2.35;;;15.80;52.20;;;;;;5069070;28;20483;-67
2021/03/22 06:19:28;;;;;;;19.67;2.55;;;15.80;52.20;;;;;;5070227;28;20048;-67
2021/03/22 06:21:55;;;;;;;25.27;3.25;;;15.80;53.20;;;;;;5071874;28;20048;-68
2021/03/22 06:24:23;;;;;;;22.83;3.22;;;15.90;52.80;;;;;;5070536;28;20075;-69
2021/03/22 06:26:53;;;;;;;27.15;2.97;;;15.80;53.20;;;;;;5071564;28;20039;-66
2021/03/22 06:29:34;;;;;;;18.35;2.70;;;15.80;53.30;;;;;;5066312;28;20039;-67
2021/03/22 06:32:28;;;;;;;14.82;3.08;;;15.70;53.20;;;;;;5071103;28;20438;-65
2021/03/22 06:34:53;;;;;;;12.95;2.35;;;15.80;52.80;;;;;;5071057;28;20047;-66
2021/03/22 06:37:25;;;;;;;11.85;2.17;;;15.80;52.50;;;;;;5072247;28;20029;-67
2021/03/22 06:40:08;;;;;;;75.47;10.50;;;15.80;52.20;;;;;;5072900;28;20028;-66
2021/03/22 06:42:34;;;;;;;63.38;10.20;;;15.80;52.00;;;;;;5071222;28;20078;-67
2021/03/22 06:45:00;;;;;;;38.05;6.15;;;15.80;52.00;;;;;;5071220;28;20131;-67
2021/03/22 06:47:31;;;;;;;21.95;4.50;;;15.80;52.00;;;;;;5072738;28;20112;-67
2021/03/22 06:50:25;;;;;;;17.30;4.80;;;15.70;51.80;;;;;;5072648;28;20034;-67
2021/03/22 06:52:52;;;;;;;12.82;3.60;;;15.80;51.90;;;;;;5072884;28;20471;-67
2021/03/22 06:55:27;;;;;;;15.60;3.63;;;15.70;51.70;;;;;;5072735;28;20482;-66
2021/03/22 06:57:53;;;;;;;14.18;3.50;;;15.70;51.60;;;;;;5072799;28;20067;-66
2021/03/22 07:00:25;;;;;;;16.70;3.53;;;15.80;51.60;;;;;;5071090;28;20056;-68
2021/03/22 07:03:03;;;;;;;14.65;3.25;;;15.70;51.70;;;;;;5071111;28;20048;-68
2021/03/22 07:05:32;;;;;;;14.55;3.25;;;15.70;51.80;;;;;;5067696;28;20032;-68
2021/03/22 07:08:04;;;;;;;11.77;3.10;;;15.70;52.00;;;;;;5066861;28;20466;-69
2021/03/22 07:10:33;;;;;;;13.95;3.08;;;15.60;52.10;;;;;;5072389;28;20020;-69
2021/03/22 07:13:22;;;;;;;11.32;2.97;;;15.70;52.60;;;;;;5072466;28;20038;-68
2021/03/22 07:15:52;;;;;;;11.32;2.78;;;15.70;52.50;;;;;;5071879;28;20040;-70
2021/03/22 07:18:31;;;;;;;12.73;3.05;;;15.70;52.70;;;;;;5072369;28;20380;-69
2021/03/22 07:20:57;;;;;;;11.18;2.45;;;15.70;52.60;;;;;;5072727;28;20028;-69
2021/03/22 07:23:22;;;;;;;12.70;2.72;;;15.70;52.50;;;;;;5072413;28;20407;-69
2021/03/22 07:25:52;;;;;;;11.50;2.45;;;15.70;52.50;;;;;;5057638;28;20102;-68
2021/03/22 07:28:33;;;;;;;11.70;2.72;;;15.70;52.70;;;;;;5072044;28;20031;-67
2021/03/22 07:31:36;;;;;;;9.38;2.85;;;15.70;52.30;;;;;;5072330;28;20078;-69
2021/03/22 07:34:17;;;;;;;12.45;2.88;;;15.70;52.30;;;;;;5072311;28;20073;-69
2021/03/22 07:36:52;;;;;;;11.55;2.60;;;15.70;52.30;;;;;;5071709;28;20149;-72
2021/03/22 07:39:42;;;;;;;9.63;3.08;;;15.70;52.40;;;;;;5072341;28;20029;-67
2021/03/22 07:43:03;;;;;;;9.07;2.67;;;15.70;52.40;;;;;;5071247;28;20024;-67
2021/03/22 07:46:00;;;;;;;10.52;2.65;;;15.70;52.50;;;;;;5045451;28;20098;-68
2021/03/22 07:48:57;;;;;;;10.32;2.55;;;15.70;52.80;;;;;;5075879;28;20032;-68
2021/03/22 07:51:51;;;;;;;9.65;2.60;;;15.70;52.60;;;;;;5074659;28;20466;-69
2021/03/22 07:54:54;;;;;;;9.38;2.53;;;15.70;52.60;;;;;;5075369;28;20430;-70
2021/03/22 07:57:55;;;;;;;9.25;2.60;;;15.70;52.60;;;;;;5075205;28;20032;-69
2021/03/22 08:00:30;;;;;;;8.88;2.13;;;15.60;52.70;;;;;;5075490;28;20017;-68
2021/03/22 08:03:14;;;;;;;7.15;2.10;;;15.70;52.50;;;;;;5075257;28;20124;-67
2021/03/22 08:06:05;;;;;;;9.35;2.45;;;15.70;52.40;;;;;;5074831;28;20150;-70
2021/03/22 08:08:33;;;;;;;9.95;2.60;;;15.80;52.20;;;;;;5075395;28;20024;-67
2021/03/22 08:11:06;;;;;;;8.23;2.20;;;15.70;52.20;;;;;;5075253;28;20025;-69
2021/03/22 08:13:38;;;;;;;5.40;1.70;;;15.80;52.10;;;;;;5075339;28;20100;-68
2021/03/22 08:16:36;;;;;;;11.05;2.33;;;15.80;52.10;;;;;;5074948;28;20056;-67
2021/03/22 08:19:34;;;;;;;7.95;2.05;;;15.80;52.10;;;;;;5075089;28;20035;-66
2021/03/22 08:22:25;;;;;;;8.25;1.90;;;15.80;52.10;;;;;;5075045;28;20033;-67
2021/03/22 08:25:19;;;;;;;7.55;2.10;;;15.80;52.10;;;;;;5075073;28;20036;-66
2021/03/22 08:27:57;;;;;;;7.35;2.00;;;15.80;52.20;;;;;;5074305;28;20048;-66
2021/03/22 08:30:33;;;;;;;6.10;2.00;;;15.80;52.10;;;;;;5073905;28;20380;-67
2021/03/22 12:12:30;;;;;;;5.78;1.73;;;16.30;50.90;;;;;;5064954;28;20402;-64
2021/03/22 12:14:55;;;;;;;7.40;1.73;;;16.40;49.40;;;;;;5067561;28;20036;-64
2021/03/22 12:17:30;;;;;;;4.28;1.70;;;16.30;49.80;;;;;;5067091;28;20029;-63
2021/03/22 12:19:57;;;;;;;5.38;2.20;;;16.30;50.10;;;;;;5053447;28;20025;-63
2021/03/22 12:22:23;;;;;;;5.18;2.10;;;16.20;50.20;;;;;;5048677;28;20428;-64
2021/03/22 12:24:49;;;;;;;4.07;1.67;;;16.20;50.30;;;;;;5047493;28;20052;-64
2021/03/22 12:27:17;;;;;;;3.38;1.60;;;16.20;50.40;;;;;;5047543;28;20474;-64
2021/03/22 12:29:44;;;;;;;9.13;1.67;;;16.30;50.40;;;;;;5046536;28;20025;-64
2021/03/22 12:32:21;;;;;;;5.85;1.60;;;16.30;50.00;;;;;;5048346;28;20540;-64
2021/03/22 12:34:47;;;;;;;5.70;1.80;;;16.30;50.30;;;;;;5047794;28;20063;-64
2021/03/22 12:37:48;;;;;;;3.45;1.42;;;16.40;50.40;;;;;;5048203;28;20021;-64
2021/03/22 12:40:14;;;;;;;3.95;1.40;;;16.40;50.40;;;;;;5045955;28;20052;-63
2021/03/22 12:42:42;;;;;;;2.58;1.63;;;16.40;50.10;;;;;;5041662;28;20030;-63
2021/03/22 12:45:17;;;;;;;5.45;1.60;;;16.50;50.10;;;;;;5048086;28;20027;-63
2021/03/22 12:47:42;;;;;;;3.80;1.63;;;16.50;50.10;;;;;;5048462;28;20048;-62
2021/03/22 12:50:19;;;;;;;3.63;1.30;;;16.40;50.10;;;;;;5047981;28;20474;-63
2021/03/22 12:52:46;;;;;;;3.78;1.40;;;16.40;50.20;;;;;;5048368;28;20516;-63
2021/03/22 12:55:13;;;;;;;3.50;1.30;;;16.30;50.40;;;;;;5048236;28;20033;-62
2021/03/22 12:57:38;;;;;;;2.47;1.30;;;16.30;50.70;;;;;;5048311;28;20116;-64
2021/03/22 13:00:05;;;;;;;5.32;1.20;;;16.20;50.80;;;;;;5047822;28;20109;-64
2021/03/22 13:02:32;;;;;;;8.80;1.40;;;16.20;51.00;;;;;;5048155;28;20482;-63
2021/03/22 13:04:58;;;;;;;4.10;1.30;;;16.20;50.80;;;;;;5048035;28;20071;-63
2021/03/22 13:07:23;;;;;;;3.30;1.38;;;16.20;51.10;;;;;;5047928;28;20025;-64
2021/03/22 13:09:49;;;;;;;3.20;1.40;;;16.30;51.00;;;;;;5047682;28;20048;-63
2021/03/22 13:12:24;;;;;;;2.97;1.38;;;16.40;50.80;;;;;;5047844;28;20036;-64
2021/03/22 13:14:51;;;;;;;2.72;1.10;;;16.50;50.30;;;;;;5047919;28;20075;-64
2021/03/22 13:17:18;;;;;;;3.05;1.23;;;16.50;50.10;;;;;;5046499;28;20036;-63
2021/03/22 13:19:43;;;;;;;2.72;1.00;;;16.60;50.20;;;;;;5047532;28;20017;-63
2021/03/22 13:22:13;;;;;;;2.60;1.30;;;16.50;50.30;;;;;;5044179;28;20021;-64
2021/03/22 13:24:39;;;;;;;3.15;1.17;;;16.50;50.30;;;;;;5033254;28;20033;-63
2021/03/22 13:27:04;;;;;;;1.42;1.00;;;16.50;50.30;;;;;;5034445;28;20482;-63
2021/03/22 13:29:30;;;;;;;4.15;1.30;;;16.50;50.40;;;;;;5034027;28;20482;-63
2021/03/22 13:31:55;;;;;;;3.47;1.17;;;16.50;50.40;;;;;;5034148;28;20033;-63
2021/03/22 13:34:22;;;;;;;2.72;1.10;;;16.40;50.50;;;;;;5033026;28;20095;-63
2021/03/22 13:36:48;;;;;;;2.70;1.13;;;16.40;50.40;;;;;;5034001;28;20383;-63
2021/03/22 13:39:15;;;;;;;2.60;1.10;;;16.40;50.40;;;;;;5033952;28;20026;-64
2021/03/22 13:41:44;;;;;;;2.33;1.10;;;16.40;50.70;;;;;;5034722;28;20463;-64
2021/03/22 13:44:12;;;;;;;3.97;1.17;;;16.30;50.80;;;;;;5034020;28;20026;-64
2021/03/22 13:46:38;;;;;;;1.83;1.00;;;16.30;51.30;;;;;;5032817;28;20109;-64
2021/03/22 13:49:04;;;;;;;1.88;0.90;;;16.30;50.80;;;;;;5033633;28;20033;-63
2021/03/22 13:51:33;;;;;;;3.58;1.00;;;16.20;50.70;;;;;;5033929;28;20548;-64
2021/03/22 13:54:00;;;;;;;2.17;0.90;;;16.20;51.00;;;;;;5034334;28;20030;-64
2021/03/22 13:56:27;;;;;;;2.10;1.00;;;16.10;51.10;;;;;;5033910;28;20026;-63
2021/03/22 13:58:52;;;;;;;1.92;0.90;;;16.10;51.10;;;;;;5033495;28;20390;-64
2021/03/22 14:01:18;;;;;;;2.40;1.08;;;16.10;51.20;;;;;;5033733;28;20030;-64
2021/03/22 14:03:44;;;;;;;3.10;0.90;;;16.10;51.30;;;;;;5033755;28;20026;-64
2021/03/22 14:06:10;;;;;;;2.28;0.80;;;16.10;51.40;;;;;;5033664;28;20030;-63
2021/03/22 14:08:36;;;;;;;2.58;0.93;;;16.10;51.50;;;;;;5033365;28;20026;-64
2021/03/22 14:11:01;;;;;;;2.38;1.10;;;16.10;51.40;;;;;;5033367;28;20509;-63
2021/03/22 14:13:27;;;;;;;2.03;0.90;;;16.10;51.30;;;;;;5034033;28;20026;-63
2021/03/22 14:15:53;;;;;;;3.08;0.90;;;16.10;51.40;;;;;;5033531;28;20033;-64
2021/03/22 14:18:23;;;;;;;1.58;0.90;;;16.00;51.40;;;;;;5033235;28;20540;-63
2021/03/22 14:20:49;;;;;;;2.45;1.00;;;16.00;51.40;;;;;;5033453;28;20025;-63
2021/03/22 14:23:19;;;;;;;1.52;0.90;;;16.00;51.50;;;;;;5032142;28;20057;-63
2021/03/22 14:25:45;;;;;;;1.92;1.00;;;16.00;51.50;;;;;;5033273;28;20394;-63
2021/03/22 14:28:11;;;;;;;2.38;1.13;;;16.00;51.40;;;;;;5032949;28;20037;-62
2021/03/22 14:30:39;;;;;;;1.75;0.90;;;16.00;51.50;;;;;;5033276;28;20029;-63
2021/03/22 14:33:07;;;;;;;1.88;0.90;;;16.00;51.40;;;;;;5033176;28;20025;-64
2021/03/22 14:35:33;;;;;;;1.85;0.98;;;16.00;51.30;;;;;;5030903;28;20021;-63
2021/03/22 14:37:58;;;;;;;2.60;1.00;;;16.00;51.90;;;;;;5032461;28;20562;-63
2021/03/22 14:40:24;;;;;;;3.00;1.10;;;16.00;51.50;;;;;;5032940;28;20494;-62
2021/03/22 14:42:51;;;;;;;1.80;0.90;;;16.00;51.30;;;;;;5033043;28;20100;-63
2021/03/22 14:45:21;;;;;;;1.23;0.80;;;16.00;51.50;;;;;;5032907;28;20013;-62
2021/03/22 14:47:47;;;;;;;3.28;1.10;;;16.00;51.50;;;;;;5031242;28;20558;-63
2021/03/22 14:50:15;;;;;;;25.88;14.45;;;16.00;51.10;;;;;;5031537;28;20109;-64
2021/03/22 14:52:41;;;;;;;18.92;8.57;;;16.00;51.70;;;;;;5032688;28;20032;-64
2021/03/22 14:55:07;;;;;;;44.25;39.65;;;16.00;51.30;;;;;;5031837;28;20025;-63
2021/03/22 14:57:33;;;;;;;23.30;20.85;;;16.00;51.30;;;;;;5033694;28;20553;-63
2021/03/22 15:00:00;;;;;;;16.33;10.32;;;16.00;51.20;;;;;;5031000;28;20026;-64
2021/03/22 15:02:25;;;;;;;14.68;8.85;;;16.10;51.30;;;;;;5031398;28;20117;-63
2021/03/22 15:04:51;;;;;;;13.68;8.15;;;16.10;51.10;;;;;;5032443;28;20057;-63
2021/03/22 15:07:17;;;;;;;15.90;7.75;;;16.10;51.10;;;;;;5032715;28;20688;-64
2021/03/22 15:09:42;;;;;;;13.77;7.55;;;16.20;51.10;;;;;;5032298;28;20029;-64
2021/03/22 15:12:09;;;;;;;12.52;7.25;;;16.20;51.00;;;;;;5031189;28;20439;-64
2021/03/22 15:14:35;;;;;;;14.43;6.65;;;16.20;51.00;;;;;;5032224;28;20123;-64
2021/03/22 15:17:01;;;;;;;12.00;6.50;;;16.20;51.00;;;;;;5031795;28;20479;-64
2021/03/22 15:19:26;;;;;;;13.00;6.20;;;16.20;51.00;;;;;;5031149;28;20075;-64
2021/03/22 15:21:53;;;;;;;12.00;5.75;;;16.20;51.10;;;;;;5032248;28;20398;-60
2021/03/22 15:24:19;;;;;;;10.00;5.57;;;16.20;51.00;;;;;;5032131;28;20067;-63
2021/03/22 15:26:45;;;;;;;10.43;5.43;;;16.20;51.00;;;;;;5032239;28;20425;-63
2021/03/22 15:29:10;;;;;;;9.88;5.55;;;16.20;51.10;;;;;;5031730;28;20590;-63
2021/03/22 15:31:36;;;;;;;10.65;5.38;;;16.20;51.20;;;;;;5030770;28;20486;-63
2021/03/22 15:34:01;;;;;;;9.32;5.25;;;16.20;51.20;;;;;;5032121;28;20061;-64
2021/03/22 15:36:30;;;;;;;8.05;5.25;;;16.20;51.10;;;;;;5031843;28;20021;-63
2021/03/22 15:38:55;;;;;;;10.23;4.97;;;16.20;51.20;;;;;;5031270;28;20104;-64
2021/03/22 15:41:24;;;;;;;8.80;4.40;;;16.20;51.30;;;;;;5030941;28;20148;-64
2021/03/22 15:43:51;;;;;;;8.07;4.38;;;16.20;51.20;;;;;;5031482;28;20021;-64
2021/03/22 15:46:17;;;;;;;11.50;4.90;;;16.10;51.30;;;;;;5031702;28;20028;-63
2021/03/22 15:48:43;;;;;;;9.50;4.57;;;16.10;51.40;;;;;;5031577;28;20026;-63
2021/03/22 15:51:10;;;;;;;10.02;4.32;;;16.10;51.40;;;;;;5031790;28;20434;-63
2021/03/22 15:53:36;;;;;;;12.23;4.15;;;16.10;51.50;;;;;;5031829;28;20451;-64
2021/03/22 15:56:04;;;;;;;11.02;4.45;;;16.10;51.40;;;;;;5031291;28;20049;-65
2021/03/22 15:58:29;;;;;;;15.43;4.40;;;16.10;51.60;;;;;;5030685;28;20017;-64
2021/03/22 16:00:55;;;;;;;15.18;4.70;;;16.10;51.60;;;;;;5031583;28;20170;-64
2021/03/22 16:03:21;;;;;;;16.42;4.10;;;16.10;51.60;;;;;;5031688;28;20029;-65
2021/03/22 16:05:49;;;;;;;80.20;54.33;;;16.10;51.70;;;;;;5031677;28;20029;-64
2021/03/22 16:08:16;;;;;;;31.67;21.48;;;16.10;51.70;;;;;;5031336;28;20116;-65
2021/03/22 16:10:42;;;;;;;17.45;9.10;;;16.10;51.70;;;;;;5031861;28;20486;-64
2021/03/22 16:13:14;;;;;;;17.17;9.55;;;16.10;51.50;;;;;;5031536;28;20125;-64
2021/03/22 16:15:39;;;;;;;14.40;8.27;;;16.20;51.40;;;;;;5031679;28;20029;-64
2021/03/22 16:18:05;;;;;;;16.40;7.95;;;16.30;51.40;;;;;;5031448;28;20025;-64
2021/03/22 16:20:33;;;;;;;13.45;7.35;;;16.30;51.30;;;;;;5031451;28;20033;-64
2021/03/22 16:23:00;;;;;;;14.90;6.95;;;16.30;51.10;;;;;;5031512;28;20032;-65
2021/03/22 16:25:29;;;;;;;18.35;6.35;;;16.40;50.90;;;;;;5031448;28;20068;-63
2021/03/22 16:27:56;;;;;;;13.40;6.97;;;16.50;51.50;;;;;;5031364;28;20112;-61
2021/03/22 16:30:23;;;;;;;13.20;6.38;;;16.50;50.80;;;;;;5031043;28;20127;-64
2021/03/22 16:32:49;;;;;;;11.32;5.93;;;16.60;50.80;;;;;;5031408;28;20386;-65
2021/03/22 16:35:24;;;;;;;10.77;5.50;;;16.50;50.70;;;;;;5031351;28;20021;-66
2021/03/22 16:37:51;;;;;;;12.65;5.40;;;16.60;50.70;;;;;;5030828;28;20033;-64
2021/03/22 16:40:18;;;;;;;14.88;6.10;;;16.60;50.80;;;;;;5030988;28;20494;-63
2021/03/22 16:42:45;;;;;;;17.55;5.60;;;16.70;50.90;;;;;;5028559;28;20061;-63